Telford, Tennessee
Current Conditions -  °F | °C
As of 6:53 PM on Wednesday 26 Nov 2014 (Local Time) from KTRI Reporting Station
Overcast Overcast  
Wind Chill: 38°   Ceiling: 5500
Heat Index: 38°   Visibility: 10mi
Dew Point: 36°   Wind: 3mph
Humidity: 93%   Direction: 350°N
Pressure: 30.01"   Gusts: NA
Location:  36.25°N, 82.55°W
Report Text: KTRI 262353Z 35003KT 10SM OVC055 03/02 A3001 RMK AO2 SLP156 T00330022 10089 20028 53005
Loading
Personal Weather Stations






























Interactive Weather Map New forecast layout! Learn more

10-Day Weather Forecast

Advertisements
Track Severe Weather on mobile